sensor_id;sensor_type;location;lat;lon;timestamp;P1;durP1;ratioP1;P2;durP2;ratioP2
1328;SDS011;658;48.820;9.354;2023-04-29T00:03:12;0.70;;;0.70;;
1328;SDS011;658;48.820;9.354;2023-04-29T00:07:13;1.00;;;0.83;;
1328;SDS011;658;48.820;9.354;2023-04-29T00:11:16;0.80;;;0.80;;
1328;SDS011;658;48.820;9.354;2023-04-29T00:15:21;0.90;;;0.90;;
1328;SDS011;658;48.820;9.354;2023-04-29T00:19:21;0.73;;;0.73;;
1328;SDS011;658;48.820;9.354;2023-04-29T00:23:22;1.17;;;0.90;;
1328;SDS011;658;48.820;9.354;2023-04-29T00:27:22;0.70;;;0.70;;
1328;SDS011;658;48.820;9.354;2023-04-29T00:31:23;0.70;;;0.70;;
1328;SDS011;658;48.820;9.354;2023-04-29T00:35:24;0.70;;;0.70;;
1328;SDS011;658;48.820;9.354;2023-04-29T00:39:25;1.03;;;0.80;;
1328;SDS011;658;48.820;9.354;2023-04-29T00:43:30;0.90;;;0.80;;
1328;SDS011;658;48.820;9.354;2023-04-29T00:47:31;0.90;;;0.90;;
1328;SDS011;658;48.820;9.354;2023-04-29T00:51:36;0.70;;;0.70;;
1328;SDS011;658;48.820;9.354;2023-04-29T00:55:40;0.60;;;0.57;;
1328;SDS011;658;48.820;9.354;2023-04-29T00:59:45;1.10;;;0.77;;
1328;SDS011;658;48.820;9.354;2023-04-29T01:03:48;0.70;;;0.70;;
1328;SDS011;658;48.820;9.354;2023-04-29T01:16:44;0.70;;;0.70;;
1328;SDS011;658;48.820;9.354;2023-04-29T01:20:50;0.87;;;0.87;;
1328;SDS011;658;48.820;9.354;2023-04-29T01:24:51;0.83;;;0.83;;
1328;SDS011;658;48.820;9.354;2023-04-29T01:32:58;1.33;;;0.70;;
1328;SDS011;658;48.820;9.354;2023-04-29T01:37:24;0.80;;;0.80;;
1328;SDS011;658;48.820;9.354;2023-04-29T01:41:56;0.80;;;0.70;;
1328;SDS011;658;48.820;9.354;2023-04-29T01:46:09;0.70;;;0.50;;
1328;SDS011;658;48.820;9.354;2023-04-29T01:50:12;0.80;;;0.80;;
1328;SDS011;658;48.820;9.354;2023-04-29T01:54:15;0.90;;;0.90;;
1328;SDS011;658;48.820;9.354;2023-04-29T01:58:18;0.90;;;0.90;;
1328;SDS011;658;48.820;9.354;2023-04-29T02:02:19;1.00;;;0.90;;
1328;SDS011;658;48.820;9.354;2023-04-29T02:06:22;1.27;;;1.13;;
1328;SDS011;658;48.820;9.354;2023-04-29T02:10:26;1.03;;;1.00;;
1328;SDS011;658;48.820;9.354;2023-04-29T02:14:31;1.60;;;0.87;;
1328;SDS011;658;48.820;9.354;2023-04-29T02:18:33;1.73;;;0.90;;
1328;SDS011;658;48.820;9.354;2023-04-29T02:22:33;1.03;;;0.93;;
1328;SDS011;658;48.820;9.354;2023-04-29T02:26:34;0.73;;;0.73;;
1328;SDS011;658;48.820;9.354;2023-04-29T02:30:34;1.10;;;1.00;;
1328;SDS011;658;48.820;9.354;2023-04-29T02:34:40;0.93;;;0.90;;
1328;SDS011;658;48.820;9.354;2023-04-29T02:38:43;0.80;;;0.80;;
1328;SDS011;658;48.820;9.354;2023-04-29T02:42:43;0.80;;;0.80;;
1328;SDS011;658;48.820;9.354;2023-04-29T02:46:44;0.80;;;0.80;;
1328;SDS011;658;48.820;9.354;2023-04-29T02:50:47;0.70;;;0.70;;
1328;SDS011;658;48.820;9.354;2023-04-29T02:54:50;0.80;;;0.80;;
1328;SDS011;658;48.820;9.354;2023-04-29T02:58:51;2.30;;;0.80;;
1328;SDS011;658;48.820;9.354;2023-04-29T03:02:51;0.63;;;0.63;;
1328;SDS011;658;48.820;9.354;2023-04-29T03:06:52;0.93;;;0.80;;
1328;SDS011;658;48.820;9.354;2023-04-29T03:10:55;0.70;;;0.70;;
1328;SDS011;658;48.820;9.354;2023-04-29T03:14:56;1.00;;;1.00;;
1328;SDS011;658;48.820;9.354;2023-04-29T03:19:01;0.70;;;0.70;;
1328;SDS011;658;48.820;9.354;2023-04-29T03:23:01;0.70;;;0.70;;
1328;SDS011;658;48.820;9.354;2023-04-29T03:27:02;1.20;;;1.10;;
1328;SDS011;658;48.820;9.354;2023-04-29T03:31:03;0.80;;;0.80;;
1328;SDS011;658;48.820;9.354;2023-04-29T03:35:04;0.80;;;0.80;;
1328;SDS011;658;48.820;9.354;2023-04-29T03:39:07;0.70;;;0.70;;
1328;SDS011;658;48.820;9.354;2023-04-29T03:43:10;1.43;;;0.90;;
1328;SDS011;658;48.820;9.354;2023-04-29T03:47:12;0.90;;;0.80;;
1328;SDS011;658;48.820;9.354;2023-04-29T03:51:13;0.80;;;0.80;;
1328;SDS011;658;48.820;9.354;2023-04-29T03:55:14;0.67;;;0.67;;
1328;SDS011;658;48.820;9.354;2023-04-29T03:59:14;0.70;;;0.70;;
1328;SDS011;658;48.820;9.354;2023-04-29T04:03:15;0.70;;;0.70;;
1328;SDS011;658;48.820;9.354;2023-04-29T04:07:15;1.33;;;0.93;;
1328;SDS011;658;48.820;9.354;2023-04-29T04:11:16;0.67;;;0.67;;
1328;SDS011;658;48.820;9.354;2023-04-29T04:15:19;0.90;;;0.90;;
1328;SDS011;658;48.820;9.354;2023-04-29T04:19:22;0.90;;;0.90;;
1328;SDS011;658;48.820;9.354;2023-04-29T04:23:22;0.80;;;0.80;;
1328;SDS011;658;48.820;9.354;2023-04-29T04:27:23;0.70;;;0.70;;
1328;SDS011;658;48.820;9.354;2023-04-29T04:31:23;0.87;;;0.87;;
1328;SDS011;658;48.820;9.354;2023-04-29T04:35:24;0.70;;;0.70;;
1328;SDS011;658;48.820;9.354;2023-04-29T04:39:25;0.77;;;0.77;;
1328;SDS011;658;48.820;9.354;2023-04-29T04:43:27;0.63;;;0.60;;
1328;SDS011;658;48.820;9.354;2023-04-29T04:47:28;0.80;;;0.80;;
1328;SDS011;658;48.820;9.354;2023-04-29T04:51:28;1.03;;;0.73;;
1328;SDS011;658;48.820;9.354;2023-04-29T04:55:29;0.80;;;0.80;;
1328;SDS011;658;48.820;9.354;2023-04-29T04:59:32;0.60;;;0.60;;
1328;SDS011;658;48.820;9.354;2023-04-29T05:03:33;0.70;;;0.70;;
1328;SDS011;658;48.820;9.354;2023-04-29T05:07:34;0.70;;;0.70;;
1328;SDS011;658;48.820;9.354;2023-04-29T05:11:39;0.80;;;0.80;;
1328;SDS011;658;48.820;9.354;2023-04-29T05:15:42;0.83;;;0.83;;
1328;SDS011;658;48.820;9.354;2023-04-29T05:19:45;0.50;;;0.50;;
1328;SDS011;658;48.820;9.354;2023-04-29T05:23:46;0.77;;;0.77;;
1328;SDS011;658;48.820;9.354;2023-04-29T05:27:49;0.60;;;0.60;;
1328;SDS011;658;48.820;9.354;2023-04-29T05:31:50;0.70;;;0.60;;
1328;SDS011;658;48.820;9.354;2023-04-29T05:35:51;0.83;;;0.80;;
1328;SDS011;658;48.820;9.354;2023-04-29T05:39:52;0.70;;;0.70;;
1328;SDS011;658;48.820;9.354;2023-04-29T05:43:52;0.90;;;0.90;;
1328;SDS011;658;48.820;9.354;2023-04-29T05:47:53;0.70;;;0.70;;
1328;SDS011;658;48.820;9.354;2023-04-29T05:51:55;1.00;;;0.70;;
1328;SDS011;658;48.820;9.354;2023-04-29T05:56:03;0.63;;;0.63;;
1328;SDS011;658;48.820;9.354;2023-04-29T06:00:07;0.80;;;0.80;;
1328;SDS011;658;48.820;9.354;2023-04-29T06:04:08;0.90;;;0.80;;
1328;SDS011;658;48.820;9.354;2023-04-29T06:08:11;0.90;;;0.90;;
1328;SDS011;658;48.820;9.354;2023-04-29T06:12:11;0.60;;;0.60;;
1328;SDS011;658;48.820;9.354;2023-04-29T06:16:12;0.50;;;0.50;;
1328;SDS011;658;48.820;9.354;2023-04-29T06:20:13;0.73;;;0.73;;
1328;SDS011;658;48.820;9.354;2023-04-29T06:24:13;0.83;;;0.83;;
1328;SDS011;658;48.820;9.354;2023-04-29T06:28:14;0.97;;;0.77;;
1328;SDS011;658;48.820;9.354;2023-04-29T06:32:15;0.70;;;0.70;;
1328;SDS011;658;48.820;9.354;2023-04-29T06:36:16;0.70;;;0.70;;
1328;SDS011;658;48.820;9.354;2023-04-29T06:40:16;0.70;;;0.70;;
1328;SDS011;658;48.820;9.354;2023-04-29T06:44:17;0.60;;;0.60;;
1328;SDS011;658;48.820;9.354;2023-04-29T06:48:18;0.60;;;0.60;;
1328;SDS011;658;48.820;9.354;2023-04-29T06:52:18;0.60;;;0.60;;
1328;SDS011;658;48.820;9.354;2023-04-29T06:56:19;0.93;;;0.93;;
1328;SDS011;658;48.820;9.354;2023-04-29T07:00:22;0.90;;;0.90;;
1328;SDS011;658;48.820;9.354;2023-04-29T07:04:23;0.70;;;0.70;;
1328;SDS011;658;48.820;9.354;2023-04-29T07:08:26;0.80;;;0.80;;
1328;SDS011;658;48.820;9.354;2023-04-29T07:12:27;0.73;;;0.60;;
1328;SDS011;658;48.820;9.354;2023-04-29T07:16:28;2.17;;;0.70;;
1328;SDS011;658;48.820;9.354;2023-04-29T07:20:28;0.70;;;0.70;;
1328;SDS011;658;48.820;9.354;2023-04-29T07:24:31;0.90;;;0.90;;
1328;SDS011;658;48.820;9.354;2023-04-29T07:28:34;1.80;;;0.73;;
1328;SDS011;658;48.820;9.354;2023-04-29T07:32:37;0.97;;;0.70;;
1328;SDS011;658;48.820;9.354;2023-04-29T07:36:37;1.67;;;1.13;;
1328;SDS011;658;48.820;9.354;2023-04-29T07:40:40;1.70;;;1.13;;
1328;SDS011;658;48.820;9.354;2023-04-29T07:44:41;0.70;;;0.70;;
1328;SDS011;658;48.820;9.354;2023-04-29T07:48:41;0.73;;;0.70;;
1328;SDS011;658;48.820;9.354;2023-04-29T07:52:45;0.80;;;0.80;;
1328;SDS011;658;48.820;9.354;2023-04-29T07:56:45;1.27;;;0.80;;
1328;SDS011;658;48.820;9.354;2023-04-29T08:00:51;0.60;;;0.60;;
1328;SDS011;658;48.820;9.354;2023-04-29T08:04:51;0.70;;;0.70;;
1328;SDS011;658;48.820;9.354;2023-04-29T08:08:55;2.17;;;1.00;;
1328;SDS011;658;48.820;9.354;2023-04-29T08:12:56;0.80;;;0.80;;
1328;SDS011;658;48.820;9.354;2023-04-29T08:16:57;0.83;;;0.80;;
1328;SDS011;658;48.820;9.354;2023-04-29T08:20:57;1.40;;;0.73;;
1328;SDS011;658;48.820;9.354;2023-04-29T08:24:58;1.93;;;1.00;;
1328;SDS011;658;48.820;9.354;2023-04-29T08:28:58;2.60;;;1.00;;
1328;SDS011;658;48.820;9.354;2023-04-29T08:32:59;0.77;;;0.77;;
1328;SDS011;658;48.820;9.354;2023-04-29T08:36:59;0.80;;;0.80;;
1328;SDS011;658;48.820;9.354;2023-04-29T08:41:00;1.73;;;0.90;;
1328;SDS011;658;48.820;9.354;2023-04-29T08:45:02;0.80;;;0.80;;
1328;SDS011;658;48.820;9.354;2023-04-29T08:49:03;0.70;;;0.67;;
1328;SDS011;658;48.820;9.354;2023-04-29T08:53:05;0.80;;;0.73;;
1328;SDS011;658;48.820;9.354;2023-04-29T08:57:09;1.67;;;0.90;;
1328;SDS011;658;48.820;9.354;2023-04-29T09:01:12;0.80;;;0.80;;
1328;SDS011;658;48.820;9.354;2023-04-29T09:05:13;1.97;;;1.00;;
1328;SDS011;658;48.820;9.354;2023-04-29T09:09:16;1.20;;;0.90;;
1328;SDS011;658;48.820;9.354;2023-04-29T09:17:40;0.90;;;0.90;;
1328;SDS011;658;48.820;9.354;2023-04-29T09:21:42;0.83;;;0.70;;
1328;SDS011;658;48.820;9.354;2023-04-29T09:25:55;1.10;;;0.73;;
1328;SDS011;658;48.820;9.354;2023-04-29T09:29:59;0.90;;;0.90;;
1328;SDS011;658;48.820;9.354;2023-04-29T09:34:00;0.80;;;0.70;;
1328;SDS011;658;48.820;9.354;2023-04-29T09:38:13;0.80;;;0.80;;
1328;SDS011;658;48.820;9.354;2023-04-29T09:42:14;0.80;;;0.80;;
1328;SDS011;658;48.820;9.354;2023-04-29T09:46:15;0.80;;;0.80;;
1328;SDS011;658;48.820;9.354;2023-04-29T09:50:16;0.73;;;0.73;;
1328;SDS011;658;48.820;9.354;2023-04-29T09:54:22;0.83;;;0.83;;
1328;SDS011;658;48.820;9.354;2023-04-29T09:58:28;0.80;;;0.80;;
1328;SDS011;658;48.820;9.354;2023-04-29T10:02:32;0.90;;;0.77;;
1328;SDS011;658;48.820;9.354;2023-04-29T10:06:33;1.50;;;0.70;;
1328;SDS011;658;48.820;9.354;2023-04-29T10:10:34;2.93;;;0.80;;
1328;SDS011;658;48.820;9.354;2023-04-29T10:14:38;1.00;;;0.93;;
1328;SDS011;658;48.820;9.354;2023-04-29T10:18:47;0.87;;;0.87;;
1328;SDS011;658;48.820;9.354;2023-04-29T10:22:52;0.90;;;0.90;;
1328;SDS011;658;48.820;9.354;2023-04-29T10:26:56;1.50;;;0.80;;
1328;SDS011;658;48.820;9.354;2023-04-29T10:31:01;0.90;;;0.90;;
1328;SDS011;658;48.820;9.354;2023-04-29T10:35:03;1.10;;;1.00;;
1328;SDS011;658;48.820;9.354;2023-04-29T10:39:11;1.00;;;0.90;;
1328;SDS011;658;48.820;9.354;2023-04-29T10:43:21;0.70;;;0.70;;
1328;SDS011;658;48.820;9.354;2023-04-29T10:47:23;0.80;;;0.80;;
1328;SDS011;658;48.820;9.354;2023-04-29T10:55:34;1.03;;;1.00;;
1328;SDS011;658;48.820;9.354;2023-04-29T11:03:50;0.70;;;0.70;;
1328;SDS011;658;48.820;9.354;2023-04-29T11:12:30;0.87;;;0.87;;
1328;SDS011;658;48.820;9.354;2023-04-29T11:16:31;1.53;;;0.90;;
1328;SDS011;658;48.820;9.354;2023-04-29T11:25:05;1.00;;;1.00;;
1328;SDS011;658;48.820;9.354;2023-04-29T11:29:06;0.87;;;0.87;;
1328;SDS011;658;48.820;9.354;2023-04-29T11:33:09;0.70;;;0.70;;
1328;SDS011;658;48.820;9.354;2023-04-29T11:37:10;0.90;;;0.90;;
1328;SDS011;658;48.820;9.354;2023-04-29T11:41:18;0.83;;;0.80;;
1328;SDS011;658;48.820;9.354;2023-04-29T11:45:19;0.83;;;0.83;;
1328;SDS011;658;48.820;9.354;2023-04-29T11:49:19;0.70;;;0.70;;
1328;SDS011;658;48.820;9.354;2023-04-29T11:53:20;0.83;;;0.83;;
1328;SDS011;658;48.820;9.354;2023-04-29T11:57:23;0.87;;;0.87;;
1328;SDS011;658;48.820;9.354;2023-04-29T12:01:24;1.00;;;0.87;;
1328;SDS011;658;48.820;9.354;2023-04-29T12:05:26;1.00;;;0.70;;
1328;SDS011;658;48.820;9.354;2023-04-29T12:09:29;0.80;;;0.80;;
1328;SDS011;658;48.820;9.354;2023-04-29T12:13:41;0.90;;;0.90;;
1328;SDS011;658;48.820;9.354;2023-04-29T12:17:42;0.93;;;0.90;;
1328;SDS011;658;48.820;9.354;2023-04-29T12:21:49;0.87;;;0.87;;
1328;SDS011;658;48.820;9.354;2023-04-29T12:25:51;1.00;;;1.00;;
1328;SDS011;658;48.820;9.354;2023-04-29T12:29:56;0.80;;;0.80;;
1328;SDS011;658;48.820;9.354;2023-04-29T12:34:01;0.70;;;0.70;;
1328;SDS011;658;48.820;9.354;2023-04-29T12:38:03;0.80;;;0.80;;
1328;SDS011;658;48.820;9.354;2023-04-29T12:42:04;0.80;;;0.80;;
1328;SDS011;658;48.820;9.354;2023-04-29T12:50:06;0.80;;;0.80;;
1328;SDS011;658;48.820;9.354;2023-04-29T12:54:08;1.00;;;0.80;;
1328;SDS011;658;48.820;9.354;2023-04-29T12:58:08;0.80;;;0.77;;
1328;SDS011;658;48.820;9.354;2023-04-29T13:02:09;0.80;;;0.80;;
1328;SDS011;658;48.820;9.354;2023-04-29T13:06:10;1.10;;;1.10;;
1328;SDS011;658;48.820;9.354;2023-04-29T13:10:11;2.60;;;2.40;;
1328;SDS011;658;48.820;9.354;2023-04-29T13:14:12;3.00;;;2.80;;
1328;SDS011;658;48.820;9.354;2023-04-29T13:18:13;3.70;;;3.40;;
1328;SDS011;658;48.820;9.354;2023-04-29T13:22:14;2.90;;;2.70;;
1328;SDS011;658;48.820;9.354;2023-04-29T13:26:16;3.40;;;3.10;;
1328;SDS011;658;48.820;9.354;2023-04-29T13:30:19;3.80;;;3.50;;
1328;SDS011;658;48.820;9.354;2023-04-29T13:34:20;6.37;;;4.40;;
1328;SDS011;658;48.820;9.354;2023-04-29T13:38:23;6.40;;;5.90;;
1328;SDS011;658;48.820;9.354;2023-04-29T13:42:23;5.53;;;5.07;;
1328;SDS011;658;48.820;9.354;2023-04-29T13:46:24;5.00;;;4.60;;
1328;SDS011;658;48.820;9.354;2023-04-29T13:50:30;5.17;;;4.77;;
1328;SDS011;658;48.820;9.354;2023-04-29T13:54:33;5.40;;;4.97;;
1328;SDS011;658;48.820;9.354;2023-04-29T13:58:35;3.80;;;3.50;;
1328;SDS011;658;48.820;9.354;2023-04-29T14:02:40;4.23;;;3.83;;
1328;SDS011;658;48.820;9.354;2023-04-29T14:06:42;3.80;;;3.50;;
1328;SDS011;658;48.820;9.354;2023-04-29T14:10:45;3.30;;;3.00;;
1328;SDS011;658;48.820;9.354;2023-04-29T14:14:48;3.30;;;3.00;;
1328;SDS011;658;48.820;9.354;2023-04-29T14:18:48;3.63;;;3.33;;
1328;SDS011;658;48.820;9.354;2023-04-29T14:22:51;2.97;;;2.77;;
1328;SDS011;658;48.820;9.354;2023-04-29T14:26:52;3.00;;;2.80;;
1328;SDS011;658;48.820;9.354;2023-04-29T14:30:56;2.80;;;2.60;;
1328;SDS011;658;48.820;9.354;2023-04-29T14:34:57;2.90;;;2.70;;
1328;SDS011;658;48.820;9.354;2023-04-29T14:38:58;2.80;;;2.67;;
1328;SDS011;658;48.820;9.354;2023-04-29T14:43:02;2.57;;;2.47;;
1328;SDS011;658;48.820;9.354;2023-04-29T14:47:03;2.97;;;2.67;;
1328;SDS011;658;48.820;9.354;2023-04-29T14:51:04;3.20;;;2.87;;
1328;SDS011;658;48.820;9.354;2023-04-29T14:55:05;3.10;;;2.90;;
1328;SDS011;658;48.820;9.354;2023-04-29T14:59:08;2.90;;;2.60;;
1328;SDS011;658;48.820;9.354;2023-04-29T15:03:09;3.50;;;2.43;;
1328;SDS011;658;48.820;9.354;2023-04-29T15:07:10;2.87;;;2.67;;
1328;SDS011;658;48.820;9.354;2023-04-29T15:11:12;2.57;;;2.47;;
1328;SDS011;658;48.820;9.354;2023-04-29T15:15:13;2.77;;;2.57;;
1328;SDS011;658;48.820;9.354;2023-04-29T15:19:13;2.77;;;2.57;;
1328;SDS011;658;48.820;9.354;2023-04-29T15:23:16;2.40;;;2.30;;
1328;SDS011;658;48.820;9.354;2023-04-29T15:27:16;3.43;;;2.80;;
1328;SDS011;658;48.820;9.354;2023-04-29T15:31:20;2.53;;;2.23;;
1328;SDS011;658;48.820;9.354;2023-04-29T15:35:21;3.00;;;2.70;;
1328;SDS011;658;48.820;9.354;2023-04-29T15:39:21;2.53;;;2.20;;
1328;SDS011;658;48.820;9.354;2023-04-29T15:43:22;2.70;;;2.47;;
1328;SDS011;658;48.820;9.354;2023-04-29T15:47:23;2.30;;;2.20;;
1328;SDS011;658;48.820;9.354;2023-04-29T15:51:26;2.57;;;2.37;;
1328;SDS011;658;48.820;9.354;2023-04-29T15:55:26;2.30;;;2.20;;
1328;SDS011;658;48.820;9.354;2023-04-29T15:59:27;2.50;;;2.40;;
1328;SDS011;658;48.820;9.354;2023-04-29T16:03:28;2.30;;;2.20;;
1328;SDS011;658;48.820;9.354;2023-04-29T16:07:29;2.20;;;2.10;;
1328;SDS011;658;48.820;9.354;2023-04-29T16:11:30;2.40;;;2.20;;
1328;SDS011;658;48.820;9.354;2023-04-29T16:15:31;2.17;;;1.97;;
1328;SDS011;658;48.820;9.354;2023-04-29T16:19:32;2.30;;;2.10;;
1328;SDS011;658;48.820;9.354;2023-04-29T16:23:35;2.00;;;1.90;;
1328;SDS011;658;48.820;9.354;2023-04-29T16:27:38;2.00;;;1.90;;
1328;SDS011;658;48.820;9.354;2023-04-29T16:31:41;2.00;;;1.90;;
1328;SDS011;658;48.820;9.354;2023-04-29T16:35:42;2.27;;;2.10;;
1328;SDS011;658;48.820;9.354;2023-04-29T16:39:43;1.70;;;1.60;;
1328;SDS011;658;48.820;9.354;2023-04-29T16:43:48;2.20;;;1.83;;
1328;SDS011;658;48.820;9.354;2023-04-29T16:47:49;1.90;;;1.80;;
1328;SDS011;658;48.820;9.354;2023-04-29T16:51:53;3.00;;;2.07;;
1328;SDS011;658;48.820;9.354;2023-04-29T16:55:54;2.30;;;2.10;;
1328;SDS011;658;48.820;9.354;2023-04-29T16:59:54;1.80;;;1.70;;
1328;SDS011;658;48.820;9.354;2023-04-29T17:03:55;1.83;;;1.73;;
1328;SDS011;658;48.820;9.354;2023-04-29T17:07:56;1.87;;;1.77;;
1328;SDS011;658;48.820;9.354;2023-04-29T17:11:59;1.87;;;1.77;;
1328;SDS011;658;48.820;9.354;2023-04-29T17:16:02;1.60;;;1.50;;
1328;SDS011;658;48.820;9.354;2023-04-29T17:20:03;2.20;;;2.10;;
1328;SDS011;658;48.820;9.354;2023-04-29T17:24:04;1.87;;;1.60;;
1328;SDS011;658;48.820;9.354;2023-04-29T17:28:07;1.57;;;1.47;;
1328;SDS011;658;48.820;9.354;2023-04-29T17:32:07;1.90;;;1.80;;
1328;SDS011;658;48.820;9.354;2023-04-29T17:36:13;1.80;;;1.70;;
1328;SDS011;658;48.820;9.354;2023-04-29T17:40:16;2.13;;;1.73;;
1328;SDS011;658;48.820;9.354;2023-04-29T17:44:19;2.60;;;2.00;;
1328;SDS011;658;48.820;9.354;2023-04-29T17:48:20;2.00;;;1.90;;
1328;SDS011;658;48.820;9.354;2023-04-29T17:52:21;2.17;;;1.70;;
1328;SDS011;658;48.820;9.354;2023-04-29T17:56:22;1.80;;;1.70;;
1328;SDS011;658;48.820;9.354;2023-04-29T18:00:22;1.80;;;1.70;;
1328;SDS011;658;48.820;9.354;2023-04-29T18:04:25;2.00;;;1.90;;
1328;SDS011;658;48.820;9.354;2023-04-29T18:08:25;1.80;;;1.70;;
1328;SDS011;658;48.820;9.354;2023-04-29T18:12:26;4.10;;;1.90;;
1328;SDS011;658;48.820;9.354;2023-04-29T18:16:27;2.07;;;1.90;;
1328;SDS011;658;48.820;9.354;2023-04-29T18:20:27;1.90;;;1.80;;
1328;SDS011;658;48.820;9.354;2023-04-29T18:24:28;6.53;;;1.80;;
1328;SDS011;658;48.820;9.354;2023-04-29T18:28:28;1.67;;;1.57;;
1328;SDS011;658;48.820;9.354;2023-04-29T18:32:29;4.00;;;1.70;;
1328;SDS011;658;48.820;9.354;2023-04-29T18:36:32;1.50;;;1.40;;
1328;SDS011;658;48.820;9.354;2023-04-29T18:40:35;1.80;;;1.50;;
1328;SDS011;658;48.820;9.354;2023-04-29T18:44:41;3.20;;;2.17;;
1328;SDS011;658;48.820;9.354;2023-04-29T18:48:42;1.50;;;1.40;;
1328;SDS011;658;48.820;9.354;2023-04-29T18:52:49;1.63;;;1.40;;
1328;SDS011;658;48.820;9.354;2023-04-29T18:56:49;1.50;;;1.40;;
1328;SDS011;658;48.820;9.354;2023-04-29T19:00:51;1.73;;;1.60;;
1328;SDS011;658;48.820;9.354;2023-04-29T19:04:51;1.50;;;1.40;;
1328;SDS011;658;48.820;9.354;2023-04-29T19:08:52;1.60;;;1.50;;
1328;SDS011;658;48.820;9.354;2023-04-29T19:12:55;1.97;;;1.60;;
1328;SDS011;658;48.820;9.354;2023-04-29T19:16:55;1.70;;;1.60;;
1328;SDS011;658;48.820;9.354;2023-04-29T19:20:56;1.50;;;1.40;;
1328;SDS011;658;48.820;9.354;2023-04-29T19:24:57;1.93;;;1.50;;
1328;SDS011;658;48.820;9.354;2023-04-29T19:29:00;1.50;;;1.47;;
1328;SDS011;658;48.820;9.354;2023-04-29T19:33:01;1.50;;;1.40;;
1328;SDS011;658;48.820;9.354;2023-04-29T19:37:02;1.50;;;1.40;;
1328;SDS011;658;48.820;9.354;2023-04-29T19:41:03;1.10;;;1.10;;
1328;SDS011;658;48.820;9.354;2023-04-29T19:45:04;1.30;;;1.20;;
1328;SDS011;658;48.820;9.354;2023-04-29T19:49:06;2.30;;;1.70;;
1328;SDS011;658;48.820;9.354;2023-04-29T19:53:07;1.50;;;1.30;;
1328;SDS011;658;48.820;9.354;2023-04-29T19:57:07;1.50;;;1.40;;
1328;SDS011;658;48.820;9.354;2023-04-29T20:01:08;1.53;;;1.43;;
1328;SDS011;658;48.820;9.354;2023-04-29T20:05:08;1.30;;;1.20;;
1328;SDS011;658;48.820;9.354;2023-04-29T20:09:09;1.60;;;1.27;;
1328;SDS011;658;48.820;9.354;2023-04-29T20:13:13;1.53;;;1.43;;
1328;SDS011;658;48.820;9.354;2023-04-29T20:17:14;1.50;;;1.40;;
1328;SDS011;658;48.820;9.354;2023-04-29T20:21:16;1.37;;;1.27;;
1328;SDS011;658;48.820;9.354;2023-04-29T20:25:17;1.73;;;1.40;;
1328;SDS011;658;48.820;9.354;2023-04-29T20:29:17;1.50;;;1.40;;
1328;SDS011;658;48.820;9.354;2023-04-29T20:33:18;1.50;;;1.40;;
1328;SDS011;658;48.820;9.354;2023-04-29T20:37:19;1.63;;;1.53;;
1328;SDS011;658;48.820;9.354;2023-04-29T20:41:19;1.50;;;1.40;;
1328;SDS011;658;48.820;9.354;2023-04-29T20:45:20;1.67;;;1.57;;
1328;SDS011;658;48.820;9.354;2023-04-29T20:49:22;2.67;;;1.60;;
1328;SDS011;658;48.820;9.354;2023-04-29T20:53:23;1.53;;;1.30;;
1328;SDS011;658;48.820;9.354;2023-04-29T20:57:24;1.30;;;1.20;;
1328;SDS011;658;48.820;9.354;2023-04-29T21:01:25;7.03;;;1.60;;
1328;SDS011;658;48.820;9.354;2023-04-29T21:05:28;1.47;;;1.37;;
1328;SDS011;658;48.820;9.354;2023-04-29T21:09:29;1.60;;;1.50;;
1328;SDS011;658;48.820;9.354;2023-04-29T21:13:34;1.50;;;1.40;;
1328;SDS011;658;48.820;9.354;2023-04-29T21:17:35;1.50;;;1.40;;
1328;SDS011;658;48.820;9.354;2023-04-29T21:21:36;1.50;;;1.40;;
1328;SDS011;658;48.820;9.354;2023-04-29T21:25:36;1.70;;;1.60;;
1328;SDS011;658;48.820;9.354;2023-04-29T21:29:39;1.53;;;1.43;;
1328;SDS011;658;48.820;9.354;2023-04-29T21:33:45;1.60;;;1.50;;
1328;SDS011;658;48.820;9.354;2023-04-29T21:37:48;1.50;;;1.40;;
1328;SDS011;658;48.820;9.354;2023-04-29T21:41:51;1.50;;;1.30;;
1328;SDS011;658;48.820;9.354;2023-04-29T21:45:52;1.30;;;1.20;;
1328;SDS011;658;48.820;9.354;2023-04-29T21:49:53;1.53;;;1.43;;
1328;SDS011;658;48.820;9.354;2023-04-29T21:53:57;1.50;;;1.40;;
1328;SDS011;658;48.820;9.354;2023-04-29T21:57:57;1.90;;;1.80;;
1328;SDS011;658;48.820;9.354;2023-04-29T22:02:00;1.50;;;1.40;;
1328;SDS011;658;48.820;9.354;2023-04-29T22:06:02;1.63;;;1.53;;
1328;SDS011;658;48.820;9.354;2023-04-29T22:10:06;1.70;;;1.60;;
1328;SDS011;658;48.820;9.354;2023-04-29T22:14:07;2.40;;;1.70;;
1328;SDS011;658;48.820;9.354;2023-04-29T22:18:07;1.50;;;1.40;;
1328;SDS011;658;48.820;9.354;2023-04-29T22:22:08;1.80;;;1.70;;
1328;SDS011;658;48.820;9.354;2023-04-29T22:26:09;1.37;;;1.30;;
1328;SDS011;658;48.820;9.354;2023-04-29T22:30:09;1.77;;;1.60;;
1328;SDS011;658;48.820;9.354;2023-04-29T22:34:10;1.50;;;1.40;;
1328;SDS011;658;48.820;9.354;2023-04-29T22:38:13;1.60;;;1.50;;
1328;SDS011;658;48.820;9.354;2023-04-29T22:42:14;1.57;;;1.47;;
1328;SDS011;658;48.820;9.354;2023-04-29T22:46:14;1.53;;;1.43;;
1328;SDS011;658;48.820;9.354;2023-04-29T22:50:17;2.63;;;1.57;;
1328;SDS011;658;48.820;9.354;2023-04-29T22:54:20;1.70;;;1.60;;
1328;SDS011;658;48.820;9.354;2023-04-29T22:58:23;1.60;;;1.50;;
1328;SDS011;658;48.820;9.354;2023-04-29T23:02:27;1.50;;;1.40;;
1328;SDS011;658;48.820;9.354;2023-04-29T23:06:32;1.57;;;1.47;;
1328;SDS011;658;48.820;9.354;2023-04-29T23:10:35;1.53;;;1.43;;
1328;SDS011;658;48.820;9.354;2023-04-29T23:14:38;1.40;;;1.30;;
1328;SDS011;658;48.820;9.354;2023-04-29T23:18:39;1.27;;;1.20;;
1328;SDS011;658;48.820;9.354;2023-04-29T23:22:42;2.20;;;1.47;;
1328;SDS011;658;48.820;9.354;2023-04-29T23:26:44;1.37;;;1.27;;
1328;SDS011;658;48.820;9.354;2023-04-29T23:30:45;1.43;;;1.23;;
1328;SDS011;658;48.820;9.354;2023-04-29T23:34:48;1.47;;;1.37;;
1328;SDS011;658;48.820;9.354;2023-04-29T23:38:51;1.27;;;1.20;;
1328;SDS011;658;48.820;9.354;2023-04-29T23:42:52;1.47;;;1.37;;
1328;SDS011;658;48.820;9.354;2023-04-29T23:46:52;1.50;;;1.43;;
1328;SDS011;658;48.820;9.354;2023-04-29T23:50:55;1.60;;;1.50;;
1328;SDS011;658;48.820;9.354;2023-04-29T23:54:56;1.50;;;1.40;;
1328;SDS011;658;48.820;9.354;2023-04-29T23:59:01;1.60;;;1.47;;
